• Join FlightAware (Why Join?)
  • Login
  • US Flag 
07:06AM EDT


 

Airport Tracker/Info


-or-


 

Live Flight TrackerFlight Track Log ✈ KAP66 ✈ 07-May-2013 ✈ KBOS - KACK

Flight Track Log - Related Links

Times and Time Zones

All times are in EDT time to prevent confusion due to time zone crossing. See the KAP66 flight status page for this flight to view local times or setup timezone preferences in your user account.

Time Position Orientation Groundspeed Altitude Reporting Facility
EDT Latitude Longitude Course Direction KTS MPH feet Rate Location/Type
04:23PM 42.3500 -70.9333 114° Southeast 108 124 1,200  Level KA90
04:24PM 42.3333 -70.9000 124° Southeast 113 130 1,700 420 Climbing KA90
04:25PM 42.3000 -70.8667 144° Southeast 119 137 2,100 420 Climbing KA90
04:26PM 42.2833 -70.8500 144° Southeast 122 140 2,600 480 Climbing KA90
04:27PM 42.2500 -70.8167 143° Southeast 122 140 3,100 480 Climbing KA90
04:28PM 42.2167 -70.8000 160° South 122 140 3,500 420 Climbing KA90
04:29PM 42.1833 -70.7833 160° South 125 144 3,900 360 Climbing KA90
04:30PM 42.1667 -70.7500 124° Southeast 125 144 4,300 360 Climbing KA90
04:32PM 42.1589 -70.6637 97° East  Level FlightAware Approximate
04:39PM 41.9146 -70.4991 114° Southeast  Level Estimated
04:40PM 41.9257 -70.4488 73° East  Level FlightAware Approximate
04:41PM 41.9368 -70.3985 73° East  Level FlightAware Approximate
04:42PM 41.9479 -70.3482 73° East  Level FlightAware Approximate
04:43PM 41.9590 -70.2978 74° East  Level FlightAware Approximate
04:44PM 41.9700 -70.2475 74° East  Level FlightAware Approximate
04:45PM 41.9317 -70.2374 180° South  Level Estimated
04:46PM 41.8962 -70.2154 155° Southeast  Level FlightAware Approximate
04:47PM 41.8608 -70.1935 155° Southeast  Level FlightAware Approximate
04:48PM 41.8253 -70.1717 155° Southeast  Level FlightAware Approximate
04:49PM 41.7898 -70.1498 155° Southeast  Level FlightAware Approximate
04:50PM 41.7543 -70.1280 155° Southeast  Level FlightAware Approximate
04:51PM 41.7189 -70.1062 155° Southeast  Level FlightAware Approximate
04:52PM 41.6834 -70.0844 155° Southeast  Level FlightAware Approximate
04:53PM 41.6479 -70.0626 155° Southeast  Level FlightAware Approximate
04:54PM 41.6124 -70.0409 155° Southeast  Level FlightAware Approximate
04:55PM 41.5981 -70.0337 189° South  Level FlightAware Approximate
04:56PM 41.5595 -70.0414 189° South  Level FlightAware Approximate
04:57PM 41.5209 -70.0492 189° South  Level FlightAware Approximate
04:58PM 41.4819 -70.0500 180° South  Level FlightAware Approximate
04:59PM 41.4428 -70.0500 180° South  Level FlightAware Approximate
05:00PM 41.4038 -70.0500 180° South  Level FlightAware Approximate
05:01PM 41.3648 -70.0500 180° South  Level FlightAware Approximate
05:02PM 41.3257 -70.0500 180° South  Level FlightAware Approximate